Time;durP1;ratioP1;P1;durP2;ratioP2;P2;SDS_P1;SDS_P2;PMS_P1;PMS_P2;Temp;Humidity;BMP_temperature;BMP_pressure;BME280_temperature;BME280_humidity;BME280_pressure;Samples;Min_cycle;Max_cycle;Signal;HPM_P1;HPM_P2
2023/02/17 08:22:27;;;;;;;18.67;7.93;;;10.00;96.00;;;;;;5136880;27;20271;-82
2023/02/17 08:26:51;;;;;;;6.67;2.93;;;10.10;94.90;;;;;;5137641;27;20625;-80
2023/02/17 08:31:26;;;;;;;5.47;3.43;;;10.20;94.80;;;;;;5094738;28;20591;-80
2023/02/17 08:35:21;;;;;;;3.43;1.90;;;10.30;94.40;;;;;;5135619;27;20291;-80
2023/02/17 08:37:48;;;;;;;5.00;3.10;;;10.30;94.10;;;;;;5134046;28;20187;-81
2023/02/17 08:40:14;;;;;;;6.80;2.57;;;10.40;93.90;;;;;;5134728;27;20234;-79
2023/02/17 08:42:40;;;;;;;7.03;3.40;;;10.40;93.70;;;;;;5133359;28;20187;-80
2023/02/17 08:45:06;;;;;;;10.93;3.57;;;10.40;94.00;;;;;;5133193;28;20247;-80
2023/02/17 08:47:34;;;;;;;5.00;2.93;;;10.40;94.20;;;;;;5134807;27;20179;-81
2023/02/17 08:49:59;;;;;;;8.80;3.30;;;10.40;94.90;;;;;;5133593;28;20199;-81
2023/02/17 08:52:25;;;;;;;10.37;4.63;;;10.30;95.50;;;;;;5136751;27;20644;-79
2023/02/17 08:54:51;;;;;;;12.37;5.70;;;10.30;95.60;;;;;;5136031;28;20243;-81
2023/02/17 08:57:17;;;;;;;4.77;2.67;;;10.30;95.50;;;;;;5138338;27;20236;-81
2023/02/17 08:59:46;;;;;;;6.30;3.67;;;10.30;95.50;;;;;;5135469;27;20633;-80
2023/02/17 09:02:13;;;;;;;7.83;3.97;;;10.30;95.50;;;;;;5132719;28;20186;-80
2023/02/17 09:04:38;;;;;;;6.97;3.30;;;10.30;95.80;;;;;;5133514;28;20199;-80
2023/02/17 09:07:08;;;;;;;6.20;3.03;;;10.30;96.00;;;;;;5134433;27;20724;-81
2023/02/17 09:09:34;;;;;;;6.50;3.17;;;10.50;96.00;;;;;;5133374;28;20179;-81
2023/02/17 09:12:00;;;;;;;8.13;3.30;;;10.70;95.80;;;;;;5132629;28;20187;-79
2023/02/17 09:14:26;;;;;;;6.13;2.60;;;10.50;96.30;;;;;;5133743;27;20202;-79
2023/02/17 09:16:53;;;;;;;4.30;2.63;;;10.40;97.00;;;;;;5133245;27;20178;-80
2023/02/17 09:19:19;;;;;;;9.73;4.03;;;10.30;97.70;;;;;;5133103;27;20171;-80
2023/02/17 09:21:45;;;;;;;5.97;2.70;;;10.40;97.90;;;;;;5132232;28;20259;-80
2023/02/17 09:24:11;;;;;;;6.30;2.93;;;10.40;98.10;;;;;;5132031;28;20278;-81
2023/02/17 09:26:36;;;;;;;11.97;3.73;;;10.30;98.40;;;;;;5134341;27;20206;-80
2023/02/17 09:29:03;;;;;;;5.40;2.77;;;10.30;98.80;;;;;;5131312;28;20190;-80
2023/02/17 09:31:30;;;;;;;7.43;2.33;;;10.40;99.00;;;;;;5131850;28;20231;-81
2023/02/17 09:33:56;;;;;;;7.23;3.60;;;10.50;98.70;;;;;;5133154;27;20230;-79
2023/02/17 09:36:24;;;;;;;6.03;2.93;;;10.50;98.40;;;;;;5134972;27;20160;-82
2023/02/17 09:38:51;;;;;;;9.67;2.80;;;10.60;98.00;;;;;;5132453;28;20320;-80
2023/02/17 09:41:22;;;;;;;2.90;1.90;;;11.00;97.80;;;;;;5134820;27;20179;-81
2023/02/17 09:43:49;;;;;;;4.63;2.53;;;11.00;96.50;;;;;;5132546;28;20174;-79
2023/02/17 09:46:44;;;;;;;6.50;2.10;;;10.90;96.50;;;;;;5123335;27;20188;-79
2023/02/17 09:49:18;;;;;;;5.83;2.60;;;11.00;96.10;;;;;;5093388;28;20189;-81
2023/02/17 09:51:46;;;;;;;7.23;3.07;;;11.10;95.50;;;;;;5120210;27;20191;-80
2023/02/17 09:54:24;;;;;;;4.10;2.00;;;11.00;95.70;;;;;;5120519;28;20249;-80
2023/02/17 09:56:52;;;;;;;7.60;2.73;;;10.90;95.60;;;;;;5120203;28;20171;-81
2023/02/17 09:59:20;;;;;;;4.70;2.50;;;10.80;95.70;;;;;;5119707;28;20176;-79
2023/02/17 10:01:48;;;;;;;6.73;2.27;;;10.90;95.50;;;;;;5119497;28;20175;-81
2023/02/17 10:04:22;;;;;;;6.63;3.07;;;10.90;95.40;;;;;;5118888;28;20184;-80
2023/02/17 10:07:01;;;;;;;5.83;2.50;;;10.90;95.50;;;;;;5122116;28;20251;-81
2023/02/17 10:09:52;;;;;;;4.70;2.80;;;10.80;95.50;;;;;;5125406;28;20171;-81
2023/02/17 10:12:29;;;;;;;6.27;2.47;;;10.70;95.60;;;;;;5119756;28;20160;-80
2023/02/17 10:15:00;;;;;;;8.00;2.30;;;10.80;95.40;;;;;;5118779;28;20210;-80
2023/02/17 10:17:57;;;;;;;6.73;2.10;;;11.00;95.60;;;;;;5117401;28;20160;-79
2023/02/17 10:20:39;;;;;;;7.93;2.57;;;11.10;95.00;;;;;;5102204;28;20183;-81
2023/02/17 10:23:18;;;;;;;3.97;1.70;;;11.10;94.50;;;;;;5118932;28;20160;-81
2023/02/17 10:26:02;;;;;;;8.47;2.50;;;11.10;94.50;;;;;;5118307;27;20218;-81
2023/02/17 10:28:40;;;;;;;4.97;2.40;;;11.10;94.50;;;;;;5119425;28;20221;-81
2023/02/17 10:31:17;;;;;;;5.60;2.47;;;11.20;95.20;;;;;;5117993;28;20649;-80
2023/02/17 10:34:02;;;;;;;3.33;2.10;;;11.30;94.60;;;;;;5117466;28;20274;-80
2023/02/17 10:36:43;;;;;;;7.33;2.73;;;11.30;94.60;;;;;;5118781;28;20167;-80
2023/02/17 10:39:12;;;;;;;5.37;2.10;;;11.30;94.60;;;;;;5117127;28;20700;-80
2023/02/17 10:41:39;;;;;;;7.20;2.63;;;11.20;95.00;;;;;;5117902;28;20206;-80
2023/02/17 10:44:18;;;;;;;3.17;1.67;;;11.10;95.30;;;;;;5120451;28;20172;-80
2023/02/17 10:46:47;;;;;;;7.23;2.90;;;11.00;95.40;;;;;;5117108;28;20198;-80
2023/02/17 10:49:31;;;;;;;5.70;1.90;;;11.00;95.70;;;;;;5118231;28;20640;-80
2023/02/17 10:52:05;;;;;;;8.10;2.30;;;11.00;95.30;;;;;;5116270;28;20176;-80
2023/02/17 10:54:41;;;;;;;4.60;2.20;;;11.10;95.50;;;;;;5116987;28;20704;-79
2023/02/17 10:57:11;;;;;;;6.53;2.37;;;11.30;95.50;;;;;;5115222;28;20186;-79
2023/02/17 10:59:41;;;;;;;12.57;3.90;;;11.40;95.60;;;;;;5116987;28;20649;-81
2023/02/17 11:02:30;;;;;;;6.20;2.20;;;11.50;95.60;;;;;;5118039;28;20168;-80
2023/02/17 11:04:58;;;;;;;6.53;2.17;;;11.40;96.20;;;;;;5108280;28;20215;-81
2023/02/17 11:07:42;;;;;;;2.87;1.73;;;11.60;96.30;;;;;;5116852;28;20694;-81
2023/02/17 11:10:22;;;;;;;5.73;2.40;;;12.00;95.80;;;;;;5116156;28;20209;-81
2023/02/17 11:12:49;;;;;;;4.57;2.13;;;12.50;94.90;;;;;;5115745;28;20175;-79
2023/02/17 11:15:22;;;;;;;8.20;2.43;;;12.50;94.90;;;;;;5117267;28;20213;-79
2023/02/17 11:17:48;;;;;;;6.90;2.43;;;12.70;94.60;;;;;;5117806;28;20169;-79
2023/02/17 11:20:14;;;;;;;3.90;1.90;;;12.70;93.90;;;;;;5116641;28;20623;-81
2023/02/17 11:22:43;;;;;;;4.80;2.60;;;12.70;94.00;;;;;;5119115;28;20176;-83
2023/02/17 11:25:23;;;;;;;4.33;2.50;;;12.60;94.10;;;;;;5116145;28;20279;-79
2023/02/17 11:27:58;;;;;;;7.57;2.07;;;12.40;94.50;;;;;;5116103;28;20175;-81
2023/02/17 11:30:26;;;;;;;6.77;2.47;;;12.10;95.00;;;;;;5117686;28;20636;-80
2023/02/17 11:32:53;;;;;;;7.27;2.40;;;11.90;95.70;;;;;;5118300;28;20598;-81
2023/02/17 11:35:34;;;;;;;4.87;2.27;;;11.90;96.20;;;;;;5116056;28;20232;-81
2023/02/17 11:38:12;;;;;;;8.57;2.77;;;11.60;96.90;;;;;;5115335;28;20207;-81
2023/02/17 11:40:38;;;;;;;6.57;2.70;;;11.50;97.50;;;;;;5116114;28;20176;-81
2023/02/17 11:43:05;;;;;;;5.00;2.13;;;11.80;97.40;;;;;;5116121;28;20534;-79
2023/02/17 11:45:55;;;;;;;5.93;1.87;;;12.80;96.60;;;;;;5118533;28;20191;-79
2023/02/17 11:48:44;;;;;;;6.60;2.63;;;13.50;94.70;;;;;;5115558;28;20180;-79
2023/02/17 11:51:54;;;;;;;4.70;2.60;;;13.90;93.40;;;;;;5117279;28;20168;-82
2023/02/17 11:54:43;;;;;;;4.93;2.63;;;13.80;92.90;;;;;;5089834;28;20304;-81
2023/02/17 11:57:24;;;;;;;4.63;2.13;;;13.00;94.70;;;;;;5116949;28;20177;-82
2023/02/17 12:00:37;;;;;;;4.20;2.20;;;12.80;95.20;;;;;;5118380;28;20235;-82
2023/02/17 12:03:21;;;;;;;6.77;2.57;;;12.60;95.70;;;;;;5038762;28;20217;-80
2023/02/17 12:05:58;;;;;;;5.30;2.30;;;12.30;96.40;;;;;;5109179;28;20211;-80
2023/02/17 12:08:37;;;;;;;5.20;2.30;;;12.30;96.70;;;;;;5117613;28;20174;-81
2023/02/17 12:11:35;;;;;;;3.97;1.93;;;12.30;96.90;;;;;;5116645;28;20165;-80
2023/02/17 12:14:35;;;;;;;6.70;3.13;;;12.40;97.30;;;;;;5116753;28;20192;-79
2023/02/17 12:17:08;;;;;;;3.70;2.53;;;12.20;97.30;;;;;;5117356;28;20541;-79
2023/02/17 12:20:01;;;;;;;8.27;3.77;;;12.00;97.80;;;;;;5121125;28;20522;-80
2023/02/17 12:22:37;;;;;;;6.90;2.77;;;12.00;98.40;;;;;;5123351;28;20258;-79
2023/02/17 12:25:18;;;;;;;8.47;3.03;;;12.00;99.30;;;;;;5121344;28;20191;-81
2023/02/17 12:27:53;;;;;;;7.33;2.10;;;11.90;99.90;;;;;;5116155;28;20198;-81
2023/02/17 12:30:44;;;;;;;4.80;2.70;;;11.70;99.90;;;;;;5115855;28;20170;-79
2023/02/17 12:33:31;;;;;;;5.80;2.60;;;11.70;99.90;;;;;;5116291;28;20178;-79
2023/02/17 12:36:03;;;;;;;4.97;2.90;;;11.90;99.90;;;;;;5115736;28;20657;-81
2023/02/17 12:38:54;;;;;;;9.27;2.60;;;12.00;99.90;;;;;;5117941;28;20196;-79
2023/02/17 12:41:36;;;;;;;4.17;2.30;;;12.20;99.90;;;;;;5119282;28;20180;-80
2023/02/17 12:44:13;;;;;;;6.37;3.10;;;12.40;99.30;;;;;;5115306;28;20190;-80
2023/02/17 12:46:43;;;;;;;7.27;2.80;;;12.70;99.40;;;;;;5115652;28;20163;-79
2023/02/17 12:49:20;;;;;;;6.40;3.40;;;13.70;97.80;;;;;;5114962;28;20179;-77
2023/02/17 12:51:52;;;;;;;2.73;1.60;;;13.60;97.00;;;;;;5114731;28;20160;-79
2023/02/17 12:54:23;;;;;;;3.07;1.80;;;12.90;97.30;;;;;;5112699;28;20254;-80
2023/02/17 12:56:56;;;;;;;6.37;2.53;;;13.10;98.00;;;;;;5113603;28;20169;-81
2023/02/17 12:59:26;;;;;;;3.20;1.73;;;13.10;99.00;;;;;;5114804;28;20176;-82
2023/02/17 13:02:03;;;;;;;5.70;2.47;;;13.10;99.20;;;;;;5117233;28;20168;-79
2023/02/17 13:04:31;;;;;;;6.83;2.40;;;13.10;98.70;;;;;;5117495;28;20265;-79
2023/02/17 13:07:09;;;;;;;8.17;2.30;;;13.50;97.90;;;;;;5114702;28;20181;-80
2023/02/17 13:09:36;;;;;;;5.70;2.10;;;13.40;97.60;;;;;;5115871;28;20178;-81
2023/02/17 13:12:31;;;;;;;4.23;2.37;;;13.10;98.10;;;;;;5115499;28;20173;-80
2023/02/17 13:15:25;;;;;;;5.47;2.50;;;12.80;98.70;;;;;;5111949;28;20550;-79
2023/02/17 13:18:01;;;;;;;3.30;2.33;;;12.40;99.30;;;;;;5112586;28;20190;-80
2023/02/17 13:20:50;;;;;;;5.13;2.10;;;12.30;99.50;;;;;;5116769;28;20199;-79
2023/02/17 13:23:27;;;;;;;7.97;2.90;;;12.30;99.30;;;;;;5078462;28;20184;-79
2023/02/17 13:26:12;;;;;;;8.13;2.53;;;12.30;99.30;;;;;;5119214;28;20257;-81
2023/02/17 13:28:39;;;;;;;4.00;2.50;;;12.20;99.90;;;;;;5119287;28;20205;-81
2023/02/17 13:31:17;;;;;;;7.53;2.13;;;12.00;99.90;;;;;;5118072;28;20232;-80
2023/02/17 13:33:54;;;;;;;4.73;1.80;;;11.90;99.90;;;;;;5119525;28;20680;-81
2023/02/17 13:36:34;;;;;;;3.57;1.70;;;11.70;99.90;;;;;;5118389;28;20191;-81
2023/02/17 13:39:03;;;;;;;3.63;2.10;;;11.70;99.90;;;;;;5121479;28;20254;-81
2023/02/17 13:41:42;;;;;;;6.07;2.10;;;11.60;99.90;;;;;;5120800;28;20176;-81
2023/02/17 13:44:38;;;;;;;3.47;1.80;;;11.60;99.90;;;;;;5120093;28;20589;-81
2023/02/17 13:47:25;;;;;;;4.63;2.23;;;11.70;99.90;;;;;;5101741;28;20667;-80
2023/02/17 13:49:54;;;;;;;3.57;2.37;;;11.70;99.90;;;;;;5119966;28;20181;-81
2023/02/17 13:52:25;;;;;;;3.00;1.93;;;11.60;99.90;;;;;;5118185;28;20588;-79
2023/02/17 13:54:56;;;;;;;4.40;1.93;;;11.70;99.90;;;;;;5121157;28;20234;-80
2023/02/17 13:57:34;;;;;;;6.67;2.07;;;11.80;99.90;;;;;;5122373;28;20179;-79
2023/02/17 14:00:20;;;;;;;4.83;2.23;;;11.90;99.90;;;;;;5127466;28;20182;-80
2023/02/17 14:02:52;;;;;;;5.00;2.60;;;12.10;99.90;;;;;;5129895;28;20180;-82
2023/02/17 14:05:38;;;;;;;5.80;1.73;;;11.90;99.90;;;;;;5134446;28;20290;-79
2023/02/17 14:08:49;;;;;;;15.30;5.03;;;11.80;99.90;;;;;;5118010;28;20187;-80
2023/02/17 14:11:20;;;;;;;6.80;2.10;;;11.80;99.90;;;;;;5113803;28;20194;-82
2023/02/17 14:13:48;;;;;;;3.73;2.00;;;11.80;99.90;;;;;;5117511;28;20229;-81
2023/02/17 14:16:26;;;;;;;15.43;5.17;;;11.70;99.90;;;;;;5117886;28;20249;-81
2023/02/17 14:19:01;;;;;;;8.13;3.00;;;11.80;99.90;;;;;;5118593;28;20683;-81
2023/02/17 14:21:28;;;;;;;9.47;4.20;;;11.80;99.90;;;;;;5117674;28;20175;-81
2023/02/17 14:23:55;;;;;;;7.50;2.57;;;11.70;99.90;;;;;;5117763;28;20531;-79
2023/02/17 14:26:41;;;;;;;8.40;3.00;;;11.70;99.90;;;;;;5117099;28;20723;-80
2023/02/17 14:29:11;;;;;;;11.80;2.57;;;11.60;99.90;;;;;;5118796;28;20488;-80
2023/02/17 14:31:49;;;;;;;4.20;2.17;;;11.50;99.90;;;;;;5117293;28;20225;-82
2023/02/17 14:34:27;;;;;;;5.60;2.67;;;11.50;99.90;;;;;;5116361;28;20552;-80
2023/02/17 14:36:53;;;;;;;6.73;3.50;;;11.40;99.90;;;;;;5117175;28;20183;-80
2023/02/17 15:03:41;;;;;;;6.77;3.60;;;11.10;99.90;;;;;;5135173;27;20268;-81
2023/02/17 15:09:52;;;;;;;4.03;1.90;;;11.10;99.90;;;;;;5134231;27;20278;-76
2023/02/17 15:16:16;;;;;;;4.73;2.33;;;11.00;99.90;;;;;;5136667;27;20287;-79
2023/02/17 15:44:24;;;;;;;6.03;2.70;;;10.40;99.90;;;;;;5134773;27;20350;-79
2023/02/17 15:51:49;;;;;;;2.20;1.87;;;10.50;99.90;;;;;;5133306;27;20762;-79
2023/02/17 15:57:24;;;;;;;4.33;2.23;;;10.60;99.90;;;;;;5135405;27;20276;-78
